sensor_id;sensor_type;location;lat;lon;timestamp;pressure;altitude;pressure_sealevel;temperature;humidity
57779;BME280;43608;49.486;9.640;2024-02-14T00:00:04;99118.19;;;1.63;100.00
57779;BME280;43608;49.486;9.640;2024-02-14T00:00:34;99117.22;;;1.61;100.00
57779;BME280;43608;49.486;9.640;2024-02-14T00:01:05;99117.25;;;1.62;100.00
57779;BME280;43608;49.486;9.640;2024-02-14T00:01:37;99121.63;;;1.62;100.00
57779;BME280;43608;49.486;9.640;2024-02-14T00:02:08;99119.81;;;1.61;100.00
57779;BME280;43608;49.486;9.640;2024-02-14T00:02:38;99118.94;;;1.60;100.00
57779;BME280;43608;49.486;9.640;2024-02-14T00:03:08;99123.25;;;1.60;100.00
57779;BME280;43608;49.486;9.640;2024-02-14T00:03:39;99115.38;;;1.58;100.00
57779;BME280;43608;49.486;9.640;2024-02-14T00:04:09;99113.66;;;1.59;100.00
57779;BME280;43608;49.486;9.640;2024-02-14T00:04:40;99110.16;;;1.58;100.00
57779;BME280;43608;49.486;9.640;2024-02-14T00:05:11;99122.34;;;1.58;100.00
57779;BME280;43608;49.486;9.640;2024-02-14T00:05:41;99121.41;;;1.57;100.00
57779;BME280;43608;49.486;9.640;2024-02-14T00:06:12;99114.44;;;1.56;100.00
57779;BME280;43608;49.486;9.640;2024-02-14T00:06:43;99107.25;;;1.51;100.00
57779;BME280;43608;49.486;9.640;2024-02-14T00:07:13;99116.97;;;1.55;100.00
57779;BME280;43608;49.486;9.640;2024-02-14T00:07:44;99116.09;;;1.54;100.00
57779;BME280;43608;49.486;9.640;2024-02-14T00:08:15;99116.09;;;1.54;100.00
57779;BME280;43608;49.486;9.640;2024-02-14T00:08:45;99123.06;;;1.54;100.00
57779;BME280;43608;49.486;9.640;2024-02-14T00:09:16;99116.03;;;1.53;100.00
57779;BME280;43608;49.486;9.640;2024-02-14T00:09:47;99123.06;;;1.54;100.00
57779;BME280;43608;49.486;9.640;2024-02-14T00:10:17;99122.97;;;1.52;100.00
57779;BME280;43608;49.486;9.640;2024-02-14T00:10:48;99110.66;;;1.49;100.00
57779;BME280;43608;49.486;9.640;2024-02-14T00:11:18;99122.91;;;1.51;100.00
57779;BME280;43608;49.486;9.640;2024-02-14T00:11:48;99118.59;;;1.51;100.00
57779;BME280;43608;49.486;9.640;2024-02-14T00:12:19;99096.34;;;1.38;100.00
57779;BME280;43608;49.486;9.640;2024-02-14T00:12:49;99114.16;;;1.48;100.00
57779;BME280;43608;49.486;9.640;2024-02-14T00:13:21;99099.06;;;1.41;100.00
57779;BME280;43608;49.486;9.640;2024-02-14T00:13:51;99122.03;;;1.50;100.00
57779;BME280;43608;49.486;9.640;2024-02-14T00:14:21;99104.16;;;1.38;100.00
57779;BME280;43608;49.486;9.640;2024-02-14T00:14:52;99117.63;;;1.49;100.00
57779;BME280;43608;49.486;9.640;2024-02-14T00:15:22;99119.38;;;1.48;100.00
57779;BME280;43608;49.486;9.640;2024-02-14T00:15:54;99115.84;;;1.48;100.00
57779;BME280;43608;49.486;9.640;2024-02-14T00:16:24;99109.63;;;1.44;100.00
57779;BME280;43608;49.486;9.640;2024-02-14T00:16:54;99117.53;;;1.46;100.00
57779;BME280;43608;49.486;9.640;2024-02-14T00:17:27;99114.00;;;1.45;100.00
57779;BME280;43608;49.486;9.640;2024-02-14T00:17:57;99115.75;;;1.45;100.00
57779;BME280;43608;49.486;9.640;2024-02-14T00:18:27;99115.75;;;1.45;100.00
57779;BME280;43608;49.486;9.640;2024-02-14T00:18:58;99120.97;;;1.45;100.00
57779;BME280;43608;49.486;9.640;2024-02-14T00:19:28;99110.41;;;1.42;100.00
57779;BME280;43608;49.486;9.640;2024-02-14T00:19:58;99120.00;;;1.43;100.00
57779;BME280;43608;49.486;9.640;2024-02-14T00:20:29;99104.03;;;1.35;100.00
57779;BME280;43608;49.486;9.640;2024-02-14T00:20:59;99115.63;;;1.42;100.00
57779;BME280;43608;49.486;9.640;2024-02-14T00:21:29;99109.44;;;1.40;100.00
57779;BME280;43608;49.486;9.640;2024-02-14T00:22:00;99120.84;;;1.42;100.00
57779;BME280;43608;49.486;9.640;2024-02-14T00:22:31;99103.16;;;1.35;100.00
57779;BME280;43608;49.486;9.640;2024-02-14T00:23:01;99113.78;;;1.39;100.00
57779;BME280;43608;49.486;9.640;2024-02-14T00:23:32;99095.97;;;1.29;100.00
57779;BME280;43608;49.486;9.640;2024-02-14T00:24:02;99116.31;;;1.38;100.00
57779;BME280;43608;49.486;9.640;2024-02-14T00:24:32;99114.56;;;1.37;100.00
57779;BME280;43608;49.486;9.640;2024-02-14T00:25:04;99113.66;;;1.36;100.00
57779;BME280;43608;49.486;9.640;2024-02-14T00:25:34;99108.19;;;1.30;100.00
57779;BME280;43608;49.486;9.640;2024-02-14T00:26:05;99114.47;;;1.35;100.00
57779;BME280;43608;49.486;9.640;2024-02-14T00:26:35;99121.44;;;1.35;100.00
57779;BME280;43608;49.486;9.640;2024-02-14T00:27:06;99118.81;;;1.35;100.00
57779;BME280;43608;49.486;9.640;2024-02-14T00:27:37;99113.53;;;1.33;100.00
57779;BME280;43608;49.486;9.640;2024-02-14T00:28:07;99115.25;;;1.32;100.00
57779;BME280;43608;49.486;9.640;2024-02-14T00:28:37;99110.88;;;1.31;100.00
57779;BME280;43608;49.486;9.640;2024-02-14T00:29:08;99107.28;;;1.29;100.00
57779;BME280;43608;49.486;9.640;2024-02-14T00:29:38;99109.97;;;1.31;100.00
57779;BME280;43608;49.486;9.640;2024-02-14T00:30:09;99114.25;;;1.29;100.00
57779;BME280;43608;49.486;9.640;2024-02-14T00:30:40;99109.03;;;1.29;100.00
57779;BME280;43608;49.486;9.640;2024-02-14T00:31:10;99115.06;;;1.28;100.00
57779;BME280;43608;49.486;9.640;2024-02-14T00:31:41;99111.56;;;1.27;100.00
57779;BME280;43608;49.486;9.640;2024-02-14T00:32:13;99111.56;;;1.27;100.00
57779;BME280;43608;49.486;9.640;2024-02-14T00:32:43;99108.00;;;1.25;100.00
57779;BME280;43608;49.486;9.640;2024-02-14T00:33:13;99046.31;;;0.84;100.00
57779;BME280;43608;49.486;9.640;2024-02-14T00:33:44;99111.44;;;1.24;100.00
57779;BME280;43608;49.486;9.640;2024-02-14T00:34:16;99108.84;;;1.24;100.00
57779;BME280;43608;49.486;9.640;2024-02-14T00:34:46;99110.47;;;1.22;100.00
57779;BME280;43608;49.486;9.640;2024-02-14T00:35:17;99105.97;;;1.18;100.00
57779;BME280;43608;49.486;9.640;2024-02-14T00:35:47;99109.56;;;1.20;100.00
57779;BME280;43608;49.486;9.640;2024-02-14T00:36:18;99114.72;;;1.19;100.00
57779;BME280;43608;49.486;9.640;2024-02-14T00:36:48;99107.72;;;1.18;100.00
57779;BME280;43608;49.486;9.640;2024-02-14T00:37:21;99111.13;;;1.17;100.00
57779;BME280;43608;49.486;9.640;2024-02-14T00:37:51;99114.56;;;1.15;100.00
57779;BME280;43608;49.486;9.640;2024-02-14T00:38:22;99120.66;;;1.14;100.00
57779;BME280;43608;49.486;9.640;2024-02-14T00:38:53;99113.59;;;1.12;100.00
57779;BME280;43608;49.486;9.640;2024-02-14T00:39:23;99113.59;;;1.12;100.00
57779;BME280;43608;49.486;9.640;2024-02-14T00:39:53;99108.22;;;1.09;100.00
57779;BME280;43608;49.486;9.640;2024-02-14T00:40:24;99115.28;;;1.11;100.00
57779;BME280;43608;49.486;9.640;2024-02-14T00:40:54;99110.84;;;1.09;100.00
57779;BME280;43608;49.486;9.640;2024-02-14T00:41:25;99110.84;;;1.09;100.00
57779;BME280;43608;49.486;9.640;2024-02-14T00:41:59;99126.44;;;1.07;100.00
57779;BME280;43608;49.486;9.640;2024-02-14T00:42:30;99107.19;;;1.05;100.00
57779;BME280;43608;49.486;9.640;2024-02-14T00:43:00;99113.34;;;1.06;100.00
57779;BME280;43608;49.486;9.640;2024-02-14T00:43:30;99116.81;;;1.06;100.00
57779;BME280;43608;49.486;9.640;2024-02-14T00:44:01;99076.66;;;0.81;100.00
57779;BME280;43608;49.486;9.640;2024-02-14T00:44:33;99121.94;;;1.03;100.00
57779;BME280;43608;49.486;9.640;2024-02-14T00:45:04;99116.66;;;1.02;100.00
57779;BME280;43608;49.486;9.640;2024-02-14T00:45:36;99118.28;;;0.99;100.00
57779;BME280;43608;49.486;9.640;2024-02-14T00:46:08;99118.34;;;1.01;100.00
57779;BME280;43608;49.486;9.640;2024-02-14T00:46:38;99119.16;;;1.00;100.00
57779;BME280;43608;49.486;9.640;2024-02-14T00:47:09;99114.81;;;0.99;100.00
57779;BME280;43608;49.486;9.640;2024-02-14T00:47:39;99118.25;;;0.98;100.00
57779;BME280;43608;49.486;9.640;2024-02-14T00:48:09;99113.84;;;0.97;100.00
57779;BME280;43608;49.486;9.640;2024-02-14T00:48:40;99117.28;;;0.96;100.00
57779;BME280;43608;49.486;9.640;2024-02-14T00:49:10;99117.28;;;0.96;100.00
57779;BME280;43608;49.486;9.640;2024-02-14T00:49:41;99085.16;;;0.76;100.00
57779;BME280;43608;49.486;9.640;2024-02-14T00:50:11;99116.25;;;0.92;100.00
57779;BME280;43608;49.486;9.640;2024-02-14T00:50:43;99118.94;;;0.94;100.00
57779;BME280;43608;49.486;9.640;2024-02-14T00:51:15;99121.56;;;0.94;100.00
57779;BME280;43608;49.486;9.640;2024-02-14T00:51:45;99116.19;;;0.91;100.00
57779;BME280;43608;49.486;9.640;2024-02-14T00:52:15;99117.97;;;0.92;100.00
57779;BME280;43608;49.486;9.640;2024-02-14T00:52:46;99119.72;;;0.91;100.00
57779;BME280;43608;49.486;9.640;2024-02-14T00:53:17;99116.25;;;0.92;100.00
57779;BME280;43608;49.486;9.640;2024-02-14T00:53:47;99115.31;;;0.90;100.00
57779;BME280;43608;49.486;9.640;2024-02-14T00:54:17;99114.41;;;0.90;100.00
57779;BME280;43608;49.486;9.640;2024-02-14T00:54:48;99105.69;;;0.89;100.00
57779;BME280;43608;49.486;9.640;2024-02-14T00:55:18;99110.91;;;0.89;100.00
57779;BME280;43608;49.486;9.640;2024-02-14T00:55:48;99103.84;;;0.87;100.00
57779;BME280;43608;49.486;9.640;2024-02-14T00:56:19;99108.25;;;0.88;100.00
57779;BME280;43608;49.486;9.640;2024-02-14T00:56:49;99106.47;;;0.87;100.00
57779;BME280;43608;49.486;9.640;2024-02-14T00:57:20;99110.81;;;0.86;100.00
57779;BME280;43608;49.486;9.640;2024-02-14T00:57:50;99109.88;;;0.86;100.00
57779;BME280;43608;49.486;9.640;2024-02-14T00:58:21;99110.75;;;0.85;100.00
57779;BME280;43608;49.486;9.640;2024-02-14T00:58:51;99104.63;;;0.84;100.00
57779;BME280;43608;49.486;9.640;2024-02-14T00:59:21;99112.38;;;0.82;100.00
57779;BME280;43608;49.486;9.640;2024-02-14T00:59:52;99108.94;;;0.84;100.00
57779;BME280;43608;49.486;9.640;2024-02-14T01:00:23;99112.38;;;0.82;100.00
57779;BME280;43608;49.486;9.640;2024-02-14T01:00:53;99104.56;;;0.82;100.00
57779;BME280;43608;49.486;9.640;2024-02-14T01:01:24;99083.09;;;0.69;100.00
57779;BME280;43608;49.486;9.640;2024-02-14T01:01:54;99114.03;;;0.80;100.00
57779;BME280;43608;49.486;9.640;2024-02-14T01:02:24;99101.84;;;0.79;100.00
57779;BME280;43608;49.486;9.640;2024-02-14T01:02:56;99105.31;;;0.80;100.00
57779;BME280;43608;49.486;9.640;2024-02-14T01:03:27;99106.13;;;0.79;100.00
57779;BME280;43608;49.486;9.640;2024-02-14T01:03:58;99110.47;;;0.78;100.00
57779;BME280;43608;49.486;9.640;2024-02-14T01:04:28;99106.91;;;0.76;100.00
57779;BME280;43608;49.486;9.640;2024-02-14T01:04:58;99096.16;;;0.69;100.00
57779;BME280;43608;49.486;9.640;2024-02-14T01:05:29;99108.56;;;0.74;100.00
57779;BME280;43608;49.486;9.640;2024-02-14T01:05:59;99111.25;;;0.76;100.00
57779;BME280;43608;49.486;9.640;2024-02-14T01:06:30;99096.09;;;0.67;100.00
57779;BME280;43608;49.486;9.640;2024-02-14T01:07:01;99109.47;;;0.75;100.00
57779;BME280;43608;49.486;9.640;2024-02-14T01:07:31;99108.56;;;0.74;100.00
57779;BME280;43608;49.486;9.640;2024-02-14T01:08:01;99106.78;;;0.73;100.00
57779;BME280;43608;49.486;9.640;2024-02-14T01:08:32;99111.19;;;0.74;100.00
57779;BME280;43608;49.486;9.640;2024-02-14T01:09:03;99114.69;;;0.75;100.00
57779;BME280;43608;49.486;9.640;2024-02-14T01:09:34;99112.88;;;0.74;100.00
57779;BME280;43608;49.486;9.640;2024-02-14T01:10:04;99113.72;;;0.73;100.00
57779;BME280;43608;49.486;9.640;2024-02-14T01:10:35;99115.44;;;0.72;100.00
57779;BME280;43608;49.486;9.640;2024-02-14T01:11:05;99081.63;;;0.54;100.00
57779;BME280;43608;49.486;9.640;2024-02-14T01:11:36;99117.22;;;0.73;100.00
57779;BME280;43608;49.486;9.640;2024-02-14T01:12:08;99114.69;;;0.75;100.00
57779;BME280;43608;49.486;9.640;2024-02-14T01:12:38;99108.63;;;0.76;100.00
57779;BME280;43608;49.486;9.640;2024-02-14T01:13:10;99111.25;;;0.76;100.00
57779;BME280;43608;49.486;9.640;2024-02-14T01:13:40;99113.97;;;0.79;100.00
57779;BME280;43608;49.486;9.640;2024-02-14T01:14:11;99120.09;;;0.79;100.00
57779;BME280;43608;49.486;9.640;2024-02-14T01:14:44;99107.94;;;0.80;100.00
57779;BME280;43608;49.486;9.640;2024-02-14T01:15:15;99115.81;;;0.81;100.00
57779;BME280;43608;49.486;9.640;2024-02-14T01:15:45;99110.59;;;0.81;100.00
57779;BME280;43608;49.486;9.640;2024-02-14T01:16:16;99112.38;;;0.82;100.00
57779;BME280;43608;49.486;9.640;2024-02-14T01:16:46;99111.56;;;0.84;100.00
57779;BME280;43608;49.486;9.640;2024-02-14T01:17:17;99107.22;;;0.84;100.00
57779;BME280;43608;49.486;9.640;2024-02-14T01:17:47;99106.41;;;0.85;100.00
57779;BME280;43608;49.486;9.640;2024-02-14T01:18:17;99104.66;;;0.86;100.00
57779;BME280;43608;49.486;9.640;2024-02-14T01:18:48;99109.97;;;0.87;100.00
57779;BME280;43608;49.486;9.640;2024-02-14T01:19:18;99107.38;;;0.87;100.00
57779;BME280;43608;49.486;9.640;2024-02-14T01:19:49;99111.75;;;0.88;100.00
57779;BME280;43608;49.486;9.640;2024-02-14T01:20:20;99094.69;;;0.75;100.00
57779;BME280;43608;49.486;9.640;2024-02-14T01:20:50;99104.75;;;0.87;100.00
57779;BME280;43608;49.486;9.640;2024-02-14T01:21:20;99110.84;;;0.88;100.00
57779;BME280;43608;49.486;9.640;2024-02-14T01:21:51;99087.56;;;0.71;100.00
57779;BME280;43608;49.486;9.640;2024-02-14T01:22:21;99106.47;;;0.87;100.00
57779;BME280;43608;49.486;9.640;2024-02-14T01:22:52;99108.19;;;0.86;100.00
57779;BME280;43608;49.486;9.640;2024-02-14T01:23:22;99111.75;;;0.88;100.00
57779;BME280;43608;49.486;9.640;2024-02-14T01:23:53;99113.47;;;0.88;100.00
57779;BME280;43608;49.486;9.640;2024-02-14T01:24:23;99113.41;;;0.86;100.00
57779;BME280;43608;49.486;9.640;2024-02-14T01:24:56;99113.41;;;0.86;100.00
57779;BME280;43608;49.486;9.640;2024-02-14T01:25:28;99109.88;;;0.86;100.00
57779;BME280;43608;49.486;9.640;2024-02-14T01:25:58;99111.63;;;0.85;100.00
57779;BME280;43608;49.486;9.640;2024-02-14T01:26:29;99110.66;;;0.83;100.00
57779;BME280;43608;49.486;9.640;2024-02-14T01:26:59;99113.25;;;0.83;100.00
57779;BME280;43608;49.486;9.640;2024-02-14T01:27:30;99115.81;;;0.81;100.00
57779;BME280;43608;49.486;9.640;2024-02-14T01:28:00;99111.38;;;0.79;100.00
57779;BME280;43608;49.486;9.640;2024-02-14T01:28:30;99105.22;;;0.77;100.00
57779;BME280;43608;49.486;9.640;2024-02-14T01:29:01;99106.84;;;0.75;100.00
57779;BME280;43608;49.486;9.640;2024-02-14T01:29:31;99108.56;;;0.74;100.00
57779;BME280;43608;49.486;9.640;2024-02-14T01:30:02;99080.00;;;0.56;100.00
57779;BME280;43608;49.486;9.640;2024-02-14T01:30:32;99114.56;;;0.72;100.00
57779;BME280;43608;49.486;9.640;2024-02-14T01:31:03;99109.19;;;0.69;100.00
57779;BME280;43608;49.486;9.640;2024-02-14T01:31:33;99111.81;;;0.69;100.00
57779;BME280;43608;49.486;9.640;2024-02-14T01:32:04;99106.53;;;0.67;100.00
57779;BME280;43608;49.486;9.640;2024-02-14T01:32:37;99109.06;;;0.65;100.00
57779;BME280;43608;49.486;9.640;2024-02-14T01:33:09;99106.31;;;0.62;100.00
57779;BME280;43608;49.486;9.640;2024-02-14T01:33:39;99092.91;;;0.53;100.00
57779;BME280;43608;49.486;9.640;2024-02-14T01:34:10;99109.78;;;0.61;100.00
57779;BME280;43608;49.486;9.640;2024-02-14T01:34:40;99114.91;;;0.60;100.00
57779;BME280;43608;49.486;9.640;2024-02-14T01:35:12;99100.72;;;0.53;100.00
57779;BME280;43608;49.486;9.640;2024-02-14T01:35:43;99103.47;;;0.56;100.00
57779;BME280;43608;49.486;9.640;2024-02-14T01:36:13;99102.56;;;0.56;100.00
57779;BME280;43608;49.486;9.640;2024-02-14T01:36:44;99089.91;;;0.44;100.00
57779;BME280;43608;49.486;9.640;2024-02-14T01:37:14;99106.91;;;0.55;100.00
57779;BME280;43608;49.486;9.640;2024-02-14T01:37:45;99096.41;;;0.54;100.00
57779;BME280;43608;49.486;9.640;2024-02-14T01:38:15;99109.44;;;0.54;100.00
57779;BME280;43608;49.486;9.640;2024-02-14T01:38:45;99073.09;;;0.37;100.00
57779;BME280;43608;49.486;9.640;2024-02-14T01:39:16;99099.78;;;0.51;100.00
57779;BME280;43608;49.486;9.640;2024-02-14T01:39:48;99094.56;;;0.51;100.00
57779;BME280;43608;49.486;9.640;2024-02-14T01:40:18;99098.88;;;0.51;100.00
57779;BME280;43608;49.486;9.640;2024-02-14T01:40:48;99094.50;;;0.49;100.00
57779;BME280;43608;49.486;9.640;2024-02-14T01:41:19;99098.75;;;0.47;100.00
57779;BME280;43608;49.486;9.640;2024-02-14T01:41:51;99104.03;;;0.49;100.00
57779;BME280;43608;49.486;9.640;2024-02-14T01:42:21;99082.84;;;0.41;100.00
57779;BME280;43608;49.486;9.640;2024-02-14T01:42:52;99102.25;;;0.48;100.00
57779;BME280;43608;49.486;9.640;2024-02-14T01:43:22;99101.41;;;0.49;100.00
57779;BME280;43608;49.486;9.640;2024-02-14T01:43:52;99077.44;;;0.37;100.00
57779;BME280;43608;49.486;9.640;2024-02-14T01:44:23;99095.19;;;0.45;100.00
57779;BME280;43608;49.486;9.640;2024-02-14T01:44:53;99080.06;;;0.37;100.00
57779;BME280;43608;49.486;9.640;2024-02-14T01:45:27;99100.66;;;0.52;100.00
57779;BME280;43608;49.486;9.640;2024-02-14T01:46:07;99097.22;;;0.53;100.00
57779;BME280;43608;49.486;9.640;2024-02-14T01:46:37;99103.28;;;0.52;100.00
57779;BME280;43608;49.486;9.640;2024-02-14T01:47:09;99093.81;;;0.54;100.00
57779;BME280;43608;49.486;9.640;2024-02-14T01:47:40;99074.31;;;0.45;100.00
57779;BME280;43608;49.486;9.640;2024-02-14T01:48:11;99060.06;;;0.37;100.00
57779;BME280;43608;49.486;9.640;2024-02-14T01:48:42;99093.97;;;0.58;100.00
57779;BME280;43608;49.486;9.640;2024-02-14T01:49:15;99096.66;;;0.60;100.00
57779;BME280;43608;49.486;9.640;2024-02-14T01:49:46;99097.56;;;0.60;100.00
57779;BME280;43608;49.486;9.640;2024-02-14T01:50:17;99032.66;;;0.26;100.00
57779;BME280;43608;49.486;9.640;2024-02-14T01:50:54;99095.06;;;0.63;100.00
57779;BME280;43608;49.486;9.640;2024-02-14T01:51:24;99067.53;;;0.49;100.00
57779;BME280;43608;49.486;9.640;2024-02-14T01:51:59;99100.44;;;0.67;100.00
57779;BME280;43608;49.486;9.640;2024-02-14T01:52:31;99095.28;;;0.68;100.00
57779;BME280;43608;49.486;9.640;2024-02-14T01:53:02;99082.94;;;0.64;100.00
57779;BME280;43608;49.486;9.640;2024-02-14T01:53:33;99097.13;;;0.71;100.00
57779;BME280;43608;49.486;9.640;2024-02-14T01:54:04;99094.50;;;0.71;100.00
57779;BME280;43608;49.486;9.640;2024-02-14T01:54:34;99091.97;;;0.72;100.00
57779;BME280;43608;49.486;9.640;2024-02-14T01:55:05;99093.75;;;0.73;100.00
57779;BME280;43608;49.486;9.640;2024-02-14T01:55:37;99055.44;;;0.51;100.00
57779;BME280;43608;49.486;9.640;2024-02-14T01:56:07;99094.69;;;0.75;100.00
57779;BME280;43608;49.486;9.640;2024-02-14T01:56:39;99092.97;;;0.76;100.00
57779;BME280;43608;49.486;9.640;2024-02-14T01:57:09;99083.25;;;0.72;100.00
57779;BME280;43608;49.486;9.640;2024-02-14T01:57:41;99088.63;;;0.76;100.00
57779;BME280;43608;49.486;9.640;2024-02-14T01:58:11;99089.56;;;0.77;100.00
57779;BME280;43608;49.486;9.640;2024-02-14T01:58:43;99088.69;;;0.78;100.00
57779;BME280;43608;49.486;9.640;2024-02-14T01:59:13;99078.25;;;0.78;100.00
57779;BME280;43608;49.486;9.640;2024-02-14T01:59:46;99077.38;;;0.77;100.00
57779;BME280;43608;49.486;9.640;2024-02-14T02:00:18;99074.84;;;0.79;100.00
57779;BME280;43608;49.486;9.640;2024-02-14T02:00:49;99075.75;;;0.79;100.00
57779;BME280;43608;49.486;9.640;2024-02-14T02:01:21;99072.28;;;0.80;100.00
57779;BME280;43608;49.486;9.640;2024-02-14T02:01:53;99069.66;;;0.80;100.00
57779;BME280;43608;49.486;9.640;2024-02-14T02:02:26;99071.47;;;0.81;100.00
57779;BME280;43608;49.486;9.640;2024-02-14T02:02:57;99074.06;;;0.81;100.00
57779;BME280;43608;49.486;9.640;2024-02-14T02:03:28;99076.72;;;0.83;100.00
57779;BME280;43608;49.486;9.640;2024-02-14T02:03:58;99074.13;;;0.83;100.00
57779;BME280;43608;49.486;9.640;2024-02-14T02:04:29;99064.53;;;0.82;100.00
57779;BME280;43608;49.486;9.640;2024-02-14T02:04:59;99079.44;;;0.85;100.00
57779;BME280;43608;49.486;9.640;2024-02-14T02:05:29;99060.00;;;0.78;100.00
57779;BME280;43608;49.486;9.640;2024-02-14T02:06:00;99077.69;;;0.85;100.00
57779;BME280;43608;49.486;9.640;2024-02-14T02:06:30;99048.44;;;0.71;100.00
57779;BME280;43608;49.486;9.640;2024-02-14T02:07:01;99073.44;;;0.87;100.00
57779;BME280;43608;49.486;9.640;2024-02-14T02:07:32;99068.22;;;0.87;100.00
57779;BME280;43608;49.486;9.640;2024-02-14T02:08:02;99068.22;;;0.87;100.00
57779;BME280;43608;49.486;9.640;2024-02-14T02:08:33;99078.66;;;0.87;100.00
57779;BME280;43608;49.486;9.640;2024-02-14T02:09:03;99070.84;;;0.87;100.00
57779;BME280;43608;49.486;9.640;2024-02-14T02:09:34;99076.09;;;0.89;100.00
57779;BME280;43608;49.486;9.640;2024-02-14T02:10:05;99064.72;;;0.87;100.00
57779;BME280;43608;49.486;9.640;2024-02-14T02:10:36;99063.88;;;0.88;100.00
57779;BME280;43608;49.486;9.640;2024-02-14T02:11:07;99069.16;;;0.89;100.00
57779;BME280;43608;49.486;9.640;2024-02-14T02:11:56;99072.66;;;0.90;100.00
57779;BME280;43608;49.486;9.640;2024-02-14T02:12:27;99074.38;;;0.89;100.00
57779;BME280;43608;49.486;9.640;2024-02-14T02:12:58;99068.34;;;0.90;100.00
57779;BME280;43608;49.486;9.640;2024-02-14T02:13:30;99075.25;;;0.90;100.00
57779;BME280;43608;49.486;9.640;2024-02-14T02:14:00;99076.22;;;0.92;100.00
57779;BME280;43608;49.486;9.640;2024-02-14T02:14:31;99061.22;;;0.86;100.00
57779;BME280;43608;49.486;9.640;2024-02-14T02:15:01;99059.50;;;0.87;100.00
57779;BME280;43608;49.486;9.640;2024-02-14T02:15:32;99080.56;;;0.91;100.00
57779;BME280;43608;49.486;9.640;2024-02-14T02:16:02;99081.44;;;0.92;100.00
57779;BME280;43608;49.486;9.640;2024-02-14T02:16:35;99074.44;;;0.91;100.00
57779;BME280;43608;49.486;9.640;2024-02-14T02:17:07;99076.22;;;0.92;100.00
57779;BME280;43608;49.486;9.640;2024-02-14T02:17:38;99074.38;;;0.89;100.00
57779;BME280;43608;49.486;9.640;2024-02-14T02:18:09;99077.97;;;0.91;100.00
57779;BME280;43608;49.486;9.640;2024-02-14T02:18:39;99084.06;;;0.92;100.00
57779;BME280;43608;49.486;9.640;2024-02-14T02:19:09;99074.50;;;0.92;100.00
57779;BME280;43608;49.486;9.640;2024-02-14T02:19:40;99077.88;;;0.90;100.00
57779;BME280;43608;49.486;9.640;2024-02-14T02:20:10;99081.44;;;0.92;100.00
57779;BME280;43608;49.486;9.640;2024-02-14T02:20:41;99077.97;;;0.91;100.00
57779;BME280;43608;49.486;9.640;2024-02-14T02:21:14;99046.72;;;0.72;100.00
57779;BME280;43608;49.486;9.640;2024-02-14T02:21:45;99068.09;;;0.84;100.00
57779;BME280;43608;49.486;9.640;2024-02-14T02:22:16;99085.78;;;0.91;100.00
57779;BME280;43608;49.486;9.640;2024-02-14T02:22:47;99073.50;;;0.89;100.00
57779;BME280;43608;49.486;9.640;2024-02-14T02:23:20;99071.59;;;0.85;100.00
57779;BME280;43608;49.486;9.640;2024-02-14T02:23:51;99084.88;;;0.91;100.00
57779;BME280;43608;49.486;9.640;2024-02-14T02:24:22;99084.88;;;0.91;100.00
57779;BME280;43608;49.486;9.640;2024-02-14T02:24:52;99084.00;;;0.90;100.00
57779;BME280;43608;49.486;9.640;2024-02-14T02:25:23;99084.00;;;0.90;100.00
57779;BME280;43608;49.486;9.640;2024-02-14T02:25:56;99085.78;;;0.91;100.00
57779;BME280;43608;49.486;9.640;2024-02-14T02:26:26;99085.78;;;0.91;100.00
57779;BME280;43608;49.486;9.640;2024-02-14T02:26:57;99078.78;;;0.90;100.00
57779;BME280;43608;49.486;9.640;2024-02-14T02:27:27;99082.25;;;0.91;100.00
57779;BME280;43608;49.486;9.640;2024-02-14T02:27:57;99079.66;;;0.91;100.00
57779;BME280;43608;49.486;9.640;2024-02-14T02:28:28;99069.00;;;0.85;100.00
57779;BME280;43608;49.486;9.640;2024-02-14T02:28:59;99078.84;;;0.92;100.00
57779;BME280;43608;49.486;9.640;2024-02-14T02:29:30;99075.34;;;0.91;100.00
57779;BME280;43608;49.486;9.640;2024-02-14T02:30:04;99076.22;;;0.92;100.00
57779;BME280;43608;49.486;9.640;2024-02-14T02:30:36;99074.50;;;0.92;100.00
57779;BME280;43608;49.486;9.640;2024-02-14T02:31:06;99076.28;;;0.93;100.00
57779;BME280;43608;49.486;9.640;2024-02-14T02:31:37;99069.16;;;0.89;100.00
57779;BME280;43608;49.486;9.640;2024-02-14T02:32:08;99085.03;;;0.94;100.00
57779;BME280;43608;49.486;9.640;2024-02-14T02:32:40;99055.75;;;0.80;100.00
57779;BME280;43608;49.486;9.640;2024-02-14T02:33:11;99072.84;;;0.94;100.00
57779;BME280;43608;49.486;9.640;2024-02-14T02:33:42;99079.78;;;0.94;100.00
57779;BME280;43608;49.486;9.640;2024-02-14T02:34:13;99066.59;;;0.91;100.00
57779;BME280;43608;49.486;9.640;2024-02-14T02:34:43;99072.03;;;0.95;100.00
57779;BME280;43608;49.486;9.640;2024-02-14T02:35:15;99070.19;;;0.93;100.00
57779;BME280;43608;49.486;9.640;2024-02-14T02:35:45;99069.41;;;0.95;100.00
57779;BME280;43608;49.486;9.640;2024-02-14T02:36:16;99071.97;;;0.94;100.00
57779;BME280;43608;49.486;9.640;2024-02-14T02:36:46;99073.66;;;0.93;100.00
57779;BME280;43608;49.486;9.640;2024-02-14T02:37:19;99072.91;;;0.96;100.00
57779;BME280;43608;49.486;9.640;2024-02-14T02:37:49;99070.28;;;0.96;100.00
57779;BME280;43608;49.486;9.640;2024-02-14T02:38:20;99071.19;;;0.96;100.00
57779;BME280;43608;49.486;9.640;2024-02-14T02:38:52;99067.69;;;0.96;100.00
57779;BME280;43608;49.486;9.640;2024-02-14T02:39:22;99065.06;;;0.96;100.00
57779;BME280;43608;49.486;9.640;2024-02-14T02:39:52;99056.16;;;0.91;100.00
57779;BME280;43608;49.486;9.640;2024-02-14T02:40:24;99061.53;;;0.94;100.00
57779;BME280;43608;49.486;9.640;2024-02-14T02:40:54;99066.81;;;0.95;100.00
57779;BME280;43608;49.486;9.640;2024-02-14T02:41:25;99042.94;;;0.86;100.00
57779;BME280;43608;49.486;9.640;2024-02-14T02:41:55;99062.47;;;0.96;100.00
57779;BME280;43608;49.486;9.640;2024-02-14T02:42:27;99065.06;;;0.96;100.00
57779;BME280;43608;49.486;9.640;2024-02-14T02:42:59;99038.25;;;0.77;100.00
57779;BME280;43608;49.486;9.640;2024-02-14T02:43:30;99065.97;;;0.96;100.00